sensor_id;sensor_type;location;lat;lon;timestamp;pressure;altitude;pressure_sealevel;temperature;humidity
49813;BME280;35706;52.100;5.056;2023-12-20T00:00:11;101489.25;;;9.78;84.29
49813;BME280;35706;52.100;5.056;2023-12-20T00:01:11;101489.97;;;9.80;84.15
49813;BME280;35706;52.100;5.056;2023-12-20T00:02:11;101502.84;;;9.72;84.02
49813;BME280;35706;52.100;5.056;2023-12-20T00:03:12;101495.91;;;9.71;84.06
49813;BME280;35706;52.100;5.056;2023-12-20T00:04:12;101489.00;;;9.81;83.81
49813;BME280;35706;52.100;5.056;2023-12-20T00:05:13;101496.88;;;9.81;83.84
49813;BME280;35706;52.100;5.056;2023-12-20T00:06:14;101497.03;;;9.91;84.00
49813;BME280;35706;52.100;5.056;2023-12-20T00:07:14;101489.78;;;9.59;84.26
49813;BME280;35706;52.100;5.056;2023-12-20T00:08:15;101493.22;;;9.48;84.59
49813;BME280;35706;52.100;5.056;2023-12-20T00:09:15;101489.66;;;9.61;84.56
49813;BME280;35706;52.100;5.056;2023-12-20T00:10:15;101493.97;;;9.62;84.66
49813;BME280;35706;52.100;5.056;2023-12-20T00:11:16;101481.63;;;9.51;84.68
49813;BME280;35706;52.100;5.056;2023-12-20T00:12:16;101492.00;;;9.52;84.30
49813;BME280;35706;52.100;5.056;2023-12-20T00:13:16;101495.41;;;9.66;84.37
49813;BME280;35706;52.100;5.056;2023-12-20T00:14:17;101491.97;;;9.65;84.07
49813;BME280;35706;52.100;5.056;2023-12-20T00:15:17;101488.34;;;9.55;84.24
49813;BME280;35706;52.100;5.056;2023-12-20T00:16:17;101485.44;;;9.47;84.42
49813;BME280;35706;52.100;5.056;2023-12-20T00:17:18;101492.47;;;9.46;85.04
49813;BME280;35706;52.100;5.056;2023-12-20T00:18:18;101485.81;;;9.05;86.40
49813;BME280;35706;52.100;5.056;2023-12-20T00:19:19;101495.47;;;9.05;87.48
49813;BME280;35706;52.100;5.056;2023-12-20T00:20:19;101478.47;;;9.10;87.41
49813;BME280;35706;52.100;5.056;2023-12-20T00:21:19;101482.84;;;9.58;86.59
49813;BME280;35706;52.100;5.056;2023-12-20T00:22:19;101482.03;;;9.69;84.41
49813;BME280;35706;52.100;5.056;2023-12-20T00:23:20;101477.16;;;9.64;84.17
49813;BME280;35706;52.100;5.056;2023-12-20T00:24:20;101477.59;;;9.93;83.96
49813;BME280;35706;52.100;5.056;2023-12-20T00:25:21;101476.31;;;9.64;84.29
49813;BME280;35706;52.100;5.056;2023-12-20T00:26:21;101486.19;;;9.60;83.99
49813;BME280;35706;52.100;5.056;2023-12-20T00:27:21;101481.63;;;9.51;84.42
49813;BME280;35706;52.100;5.056;2023-12-20T00:28:23;101475.94;;;9.57;84.22
49813;BME280;35706;52.100;5.056;2023-12-20T00:29:23;101491.50;;;9.47;84.36
49813;BME280;35706;52.100;5.056;2023-12-20T00:30:24;101483.59;;;9.71;83.96
49813;BME280;35706;52.100;5.056;2023-12-20T00:31:24;101489.34;;;9.76;83.37
49813;BME280;35706;52.100;5.056;2023-12-20T00:32:24;101492.41;;;9.59;83.89
49813;BME280;35706;52.100;5.056;2023-12-20T00:33:24;101488.09;;;9.58;83.99
49813;BME280;35706;52.100;5.056;2023-12-20T00:34:25;101480.84;;;9.37;84.56
49813;BME280;35706;52.100;5.056;2023-12-20T00:35:25;101490.78;;;9.45;84.44
49813;BME280;35706;52.100;5.056;2023-12-20T00:36:26;101482.28;;;9.42;84.58
49813;BME280;35706;52.100;5.056;2023-12-20T00:37:26;101483.53;;;9.49;84.42
49813;BME280;35706;52.100;5.056;2023-12-20T00:38:26;101481.72;;;9.38;84.24
49813;BME280;35706;52.100;5.056;2023-12-20T00:39:27;101482.81;;;9.47;84.15
49813;BME280;35706;52.100;5.056;2023-12-20T00:40:27;101483.56;;;9.60;84.07
49813;BME280;35706;52.100;5.056;2023-12-20T00:41:28;101487.66;;;9.75;83.92
49813;BME280;35706;52.100;5.056;2023-12-20T00:42:28;101488.72;;;9.62;83.72
49813;BME280;35706;52.100;5.056;2023-12-20T00:43:29;101488.38;;;9.66;83.08
49813;BME280;35706;52.100;5.056;2023-12-20T00:44:29;101480.81;;;9.50;83.45
49813;BME280;35706;52.100;5.056;2023-12-20T00:45:29;101493.88;;;9.39;84.02
49813;BME280;35706;52.100;5.056;2023-12-20T00:46:30;101474.78;;;9.37;84.47
49813;BME280;35706;52.100;5.056;2023-12-20T00:47:33;101485.91;;;9.76;83.90
49813;BME280;35706;52.100;5.056;2023-12-20T00:48:33;101480.19;;;9.47;84.17
49813;BME280;35706;52.100;5.056;2023-12-20T00:49:34;101489.72;;;9.48;84.37
49813;BME280;35706;52.100;5.056;2023-12-20T00:50:34;101486.88;;;9.51;84.39
49813;BME280;35706;52.100;5.056;2023-12-20T00:51:35;101491.25;;;9.39;84.08
49813;BME280;35706;52.100;5.056;2023-12-20T00:52:35;101490.63;;;9.35;84.51
49813;BME280;35706;52.100;5.056;2023-12-20T00:53:35;101485.06;;;9.40;84.39
49813;BME280;35706;52.100;5.056;2023-12-20T00:54:36;101484.03;;;9.54;83.79
49813;BME280;35706;52.100;5.056;2023-12-20T00:55:36;101475.34;;;9.65;83.96
49813;BME280;35706;52.100;5.056;2023-12-20T00:56:36;101482.53;;;9.38;84.40
49813;BME280;35706;52.100;5.056;2023-12-20T00:57:37;101475.97;;;9.68;83.53
49813;BME280;35706;52.100;5.056;2023-12-20T00:58:37;101471.78;;;9.66;83.36
49813;BME280;35706;52.100;5.056;2023-12-20T00:59:37;101460.66;;;9.51;83.37
49813;BME280;35706;52.100;5.056;2023-12-20T01:00:37;101468.16;;;9.55;83.67
49813;BME280;35706;52.100;5.056;2023-12-20T01:01:38;101470.97;;;9.76;82.94
49813;BME280;35706;52.100;5.056;2023-12-20T01:02:39;101471.88;;;9.53;83.86
49813;BME280;35706;52.100;5.056;2023-12-20T01:03:39;101452.03;;;9.49;83.98
49813;BME280;35706;52.100;5.056;2023-12-20T01:04:40;101474.25;;;9.56;83.82
49813;BME280;35706;52.100;5.056;2023-12-20T01:05:40;101470.97;;;9.65;83.47
49813;BME280;35706;52.100;5.056;2023-12-20T01:06:40;101474.25;;;9.56;83.59
49813;BME280;35706;52.100;5.056;2023-12-20T01:07:41;101480.22;;;9.58;83.68
49813;BME280;35706;52.100;5.056;2023-12-20T01:08:41;101473.78;;;9.62;83.66
49813;BME280;35706;52.100;5.056;2023-12-20T01:09:41;101480.22;;;9.93;82.44
49813;BME280;35706;52.100;5.056;2023-12-20T01:10:42;101472.63;;;9.77;82.79
49813;BME280;35706;52.100;5.056;2023-12-20T01:11:42;101477.56;;;9.47;84.02
49813;BME280;35706;52.100;5.056;2023-12-20T01:12:43;101475.88;;;9.46;84.14
49813;BME280;35706;52.100;5.056;2023-12-20T01:13:44;101468.78;;;9.59;84.00
49813;BME280;35706;52.100;5.056;2023-12-20T01:14:44;101452.41;;;9.44;83.94
49813;BME280;35706;52.100;5.056;2023-12-20T01:15:44;101463.94;;;9.42;84.41
49813;BME280;35706;52.100;5.056;2023-12-20T01:16:45;101472.31;;;9.47;84.40
49813;BME280;35706;52.100;5.056;2023-12-20T01:17:45;101455.84;;;9.45;84.58
49813;BME280;35706;52.100;5.056;2023-12-20T01:18:45;101467.19;;;9.45;84.80
49813;BME280;35706;52.100;5.056;2023-12-20T01:19:46;101467.34;;;9.55;84.53
49813;BME280;35706;52.100;5.056;2023-12-20T01:20:46;101473.25;;;9.46;84.96
49813;BME280;35706;52.100;5.056;2023-12-20T01:21:46;101470.00;;;9.66;83.61
49813;BME280;35706;52.100;5.056;2023-12-20T01:22:47;101474.34;;;9.54;84.21
49813;BME280;35706;52.100;5.056;2023-12-20T01:23:47;101484.13;;;9.52;84.36
49813;BME280;35706;52.100;5.056;2023-12-20T01:24:47;101484.63;;;9.57;83.90
49813;BME280;35706;52.100;5.056;2023-12-20T01:25:48;101477.38;;;9.61;83.76
49813;BME280;35706;52.100;5.056;2023-12-20T01:26:48;101481.09;;;9.70;83.31
49813;BME280;35706;52.100;5.056;2023-12-20T01:27:49;101488.81;;;9.60;83.70
49813;BME280;35706;52.100;5.056;2023-12-20T01:28:49;101487.88;;;9.61;83.44
49813;BME280;35706;52.100;5.056;2023-12-20T01:29:49;101485.28;;;9.72;82.84
49813;BME280;35706;52.100;5.056;2023-12-20T01:30:49;101490.63;;;9.60;83.19
49813;BME280;35706;52.100;5.056;2023-12-20T01:31:50;101488.97;;;9.70;83.16
49813;BME280;35706;52.100;5.056;2023-12-20T01:32:50;101492.78;;;9.66;83.12
49813;BME280;35706;52.100;5.056;2023-12-20T01:33:51;101489.72;;;9.72;82.66
49813;BME280;35706;52.100;5.056;2023-12-20T01:34:51;101494.41;;;9.55;82.95
49813;BME280;35706;52.100;5.056;2023-12-20T01:35:51;101486.22;;;9.71;82.81
49813;BME280;35706;52.100;5.056;2023-12-20T01:36:52;101494.34;;;9.68;82.36
49813;BME280;35706;52.100;5.056;2023-12-20T01:37:52;101487.56;;;9.77;82.38
49813;BME280;35706;52.100;5.056;2023-12-20T01:38:56;101483.13;;;9.77;82.32
49813;BME280;35706;52.100;5.056;2023-12-20T01:39:57;101482.22;;;9.90;81.79
49813;BME280;35706;52.100;5.056;2023-12-20T01:40:57;101478.28;;;9.84;81.94
49813;BME280;35706;52.100;5.056;2023-12-20T01:41:57;101477.16;;;9.64;82.78
49813;BME280;35706;52.100;5.056;2023-12-20T01:43:06;101485.56;;;9.81;82.99
49813;BME280;35706;52.100;5.056;2023-12-20T01:44:08;101470.97;;;9.65;83.09
49813;BME280;35706;52.100;5.056;2023-12-20T01:45:08;101466.19;;;9.70;82.69
49813;BME280;35706;52.100;5.056;2023-12-20T01:46:09;101469.06;;;9.67;82.92
49813;BME280;35706;52.100;5.056;2023-12-20T01:47:09;101474.53;;;9.64;83.02
49813;BME280;35706;52.100;5.056;2023-12-20T01:48:10;101472.91;;;9.86;82.67
49813;BME280;35706;52.100;5.056;2023-12-20T01:49:11;101468.78;;;9.59;83.33
49813;BME280;35706;52.100;5.056;2023-12-20T01:50:11;101475.84;;;9.70;82.54
49813;BME280;35706;52.100;5.056;2023-12-20T01:51:12;101472.53;;;9.79;82.39
49813;BME280;35706;52.100;5.056;2023-12-20T01:52:12;101468.25;;;9.89;81.91
49813;BME280;35706;52.100;5.056;2023-12-20T01:53:13;101479.03;;;10.09;81.58
49813;BME280;35706;52.100;5.056;2023-12-20T01:54:14;101469.78;;;9.81;82.02
49813;BME280;35706;52.100;5.056;2023-12-20T01:55:14;101468.47;;;9.86;82.08
49813;BME280;35706;52.100;5.056;2023-12-20T01:56:16;101469.50;;;10.08;81.70
49813;BME280;35706;52.100;5.056;2023-12-20T01:57:16;101461.47;;;9.87;81.45
49813;BME280;35706;52.100;5.056;2023-12-20T01:58:17;101468.88;;;9.93;82.08
49813;BME280;35706;52.100;5.056;2023-12-20T01:59:19;101461.97;;;10.14;81.44
49813;BME280;35706;52.100;5.056;2023-12-20T02:00:21;101465.78;;;10.22;81.28
49813;BME280;35706;52.100;5.056;2023-12-20T02:01:24;101468.41;;;10.22;80.66
49813;BME280;35706;52.100;5.056;2023-12-20T02:02:27;101467.69;;;9.97;82.14
49813;BME280;35706;52.100;5.056;2023-12-20T02:03:28;101462.03;;;9.79;82.59
49813;BME280;35706;52.100;5.056;2023-12-20T02:04:29;101470.63;;;9.92;82.30
49813;BME280;35706;52.100;5.056;2023-12-20T02:05:30;101473.50;;;9.89;82.38
49813;BME280;35706;52.100;5.056;2023-12-20T02:06:33;101471.03;;;9.99;82.62
49813;BME280;35706;52.100;5.056;2023-12-20T02:07:33;101461.56;;;9.74;82.44
49813;BME280;35706;52.100;5.056;2023-12-20T02:08:35;101449.28;;;9.86;82.53
49813;BME280;35706;52.100;5.056;2023-12-20T02:09:36;101473.16;;;9.94;82.53
49813;BME280;35706;52.100;5.056;2023-12-20T02:10:38;101470.63;;;9.92;82.39
49813;BME280;35706;52.100;5.056;2023-12-20T02:11:38;101468.84;;;9.82;82.40
49813;BME280;35706;52.100;5.056;2023-12-20T02:12:39;101463.94;;;9.88;82.42
49813;BME280;35706;52.100;5.056;2023-12-20T02:13:39;101467.91;;;9.94;82.34
49813;BME280;35706;52.100;5.056;2023-12-20T02:14:39;101458.13;;;9.96;81.92
49813;BME280;35706;52.100;5.056;2023-12-20T02:15:39;101471.25;;;9.96;81.82
49813;BME280;35706;52.100;5.056;2023-12-20T02:16:42;101472.44;;;9.92;82.11
49813;BME280;35706;52.100;5.056;2023-12-20T02:17:43;101464.56;;;10.03;81.95
49813;BME280;35706;52.100;5.056;2023-12-20T02:18:44;101480.56;;;10.00;81.70
49813;BME280;35706;52.100;5.056;2023-12-20T02:19:44;101475.78;;;10.05;81.49
49813;BME280;35706;52.100;5.056;2023-12-20T02:20:45;101473.88;;;10.07;81.29
49813;BME280;35706;52.100;5.056;2023-12-20T02:21:45;101460.41;;;10.01;81.30
49813;BME280;35706;52.100;5.056;2023-12-20T02:22:45;101478.78;;;10.01;81.75
49813;BME280;35706;52.100;5.056;2023-12-20T02:23:46;101464.66;;;9.90;81.70
49813;BME280;35706;52.100;5.056;2023-12-20T02:24:46;101464.09;;;9.98;81.60
49813;BME280;35706;52.100;5.056;2023-12-20T02:25:46;101469.72;;;10.05;81.36
49813;BME280;35706;52.100;5.056;2023-12-20T02:26:46;101468.06;;;10.04;81.49
49813;BME280;35706;52.100;5.056;2023-12-20T02:27:48;101468.06;;;10.15;81.68
49813;BME280;35706;52.100;5.056;2023-12-20T02:28:48;101473.78;;;9.97;81.80
49813;BME280;35706;52.100;5.056;2023-12-20T02:29:50;101470.78;;;10.02;81.92
49813;BME280;35706;52.100;5.056;2023-12-20T02:30:50;101449.97;;;9.76;82.49
49813;BME280;35706;52.100;5.056;2023-12-20T02:31:50;101456.44;;;9.84;82.98
49813;BME280;35706;52.100;5.056;2023-12-20T02:32:51;101459.50;;;9.66;83.08
49813;BME280;35706;52.100;5.056;2023-12-20T02:33:52;101452.97;;;9.83;82.57
49813;BME280;35706;52.100;5.056;2023-12-20T02:34:53;101449.44;;;9.60;83.19
49813;BME280;35706;52.100;5.056;2023-12-20T02:35:53;101458.66;;;9.66;83.25
49813;BME280;35706;52.100;5.056;2023-12-20T02:36:53;101452.34;;;9.68;83.20
49813;BME280;35706;52.100;5.056;2023-12-20T02:37:54;101461.19;;;9.78;82.65
49813;BME280;35706;52.100;5.056;2023-12-20T02:38:54;101457.34;;;9.71;83.00
49813;BME280;35706;52.100;5.056;2023-12-20T02:39:54;101452.94;;;9.72;82.84
49813;BME280;35706;52.100;5.056;2023-12-20T02:40:55;101453.53;;;9.75;82.79
49813;BME280;35706;52.100;5.056;2023-12-20T02:41:55;101449.25;;;9.74;82.99
49813;BME280;35706;52.100;5.056;2023-12-20T02:42:55;101446.66;;;9.86;82.99
49813;BME280;35706;52.100;5.056;2023-12-20T02:43:56;101449.81;;;9.67;83.47
49813;BME280;35706;52.100;5.056;2023-12-20T02:44:56;101433.97;;;9.79;82.96
49813;BME280;35706;52.100;5.056;2023-12-20T02:45:56;101459.28;;;9.81;82.50
49813;BME280;35706;52.100;5.056;2023-12-20T02:46:57;101452.00;;;9.73;82.81
49813;BME280;35706;52.100;5.056;2023-12-20T02:47:57;101447.63;;;9.85;82.58
49813;BME280;35706;52.100;5.056;2023-12-20T02:48:57;101455.69;;;9.82;82.50
49813;BME280;35706;52.100;5.056;2023-12-20T02:49:57;101452.63;;;9.88;82.45
49813;BME280;35706;52.100;5.056;2023-12-20T02:50:58;101446.28;;;9.90;82.12
49813;BME280;35706;52.100;5.056;2023-12-20T02:51:58;101444.63;;;9.89;82.54
49813;BME280;35706;52.100;5.056;2023-12-20T02:52:58;101452.75;;;9.97;82.01
49813;BME280;35706;52.100;5.056;2023-12-20T02:53:59;101446.19;;;9.92;82.14
49813;BME280;35706;52.100;5.056;2023-12-20T02:54:59;101449.88;;;10.01;81.97
49813;BME280;35706;52.100;5.056;2023-12-20T02:55:59;101445.25;;;9.93;82.18
49813;BME280;35706;52.100;5.056;2023-12-20T02:57:00;101443.22;;;10.08;82.04
49813;BME280;35706;52.100;5.056;2023-12-20T02:58:00;101439.63;;;10.09;81.92
49813;BME280;35706;52.100;5.056;2023-12-20T02:59:01;101441.19;;;10.11;81.97
49813;BME280;35706;52.100;5.056;2023-12-20T03:00:02;101439.75;;;10.07;82.01
49813;BME280;35706;52.100;5.056;2023-12-20T03:01:02;101441.44;;;9.97;81.87
49813;BME280;35706;52.100;5.056;2023-12-20T03:02:03;101437.25;;;10.06;81.67
49813;BME280;35706;52.100;5.056;2023-12-20T03:03:03;101443.94;;;10.10;81.91
49813;BME280;35706;52.100;5.056;2023-12-20T03:04:04;101442.38;;;10.07;81.96
49813;BME280;35706;52.100;5.056;2023-12-20T03:05:05;101445.84;;;10.08;82.13
49813;BME280;35706;52.100;5.056;2023-12-20T03:06:05;101435.22;;;9.98;81.85
49813;BME280;35706;52.100;5.056;2023-12-20T03:07:06;101445.72;;;10.09;81.83
49813;BME280;35706;52.100;5.056;2023-12-20T03:08:06;101434.97;;;10.01;81.77
49813;BME280;35706;52.100;5.056;2023-12-20T03:09:07;101442.16;;;10.10;81.64
49813;BME280;35706;52.100;5.056;2023-12-20T03:10:08;101427.94;;;10.13;81.54
49813;BME280;35706;52.100;5.056;2023-12-20T03:11:09;101442.16;;;9.99;81.76
49813;BME280;35706;52.100;5.056;2023-12-20T03:12:09;101437.59;;;9.90;81.79
49813;BME280;35706;52.100;5.056;2023-12-20T03:13:10;101428.53;;;10.05;81.56
49813;BME280;35706;52.100;5.056;2023-12-20T03:14:10;101427.47;;;10.19;81.33
49813;BME280;35706;52.100;5.056;2023-12-20T03:15:10;101424.47;;;10.12;80.92
49813;BME280;35706;52.100;5.056;2023-12-20T03:16:11;101422.44;;;10.05;81.38
49813;BME280;35706;52.100;5.056;2023-12-20T03:17:12;101425.66;;;9.97;81.53
49813;BME280;35706;52.100;5.056;2023-12-20T03:18:12;101426.75;;;10.06;80.85
49813;BME280;35706;52.100;5.056;2023-12-20T03:19:12;101425.66;;;9.97;81.14
49813;BME280;35706;52.100;5.056;2023-12-20T03:20:13;101429.38;;;10.06;81.10
49813;BME280;35706;52.100;5.056;2023-12-20T03:21:13;101435.22;;;9.98;81.12
49813;BME280;35706;52.100;5.056;2023-12-20T03:22:14;101418.16;;;10.04;80.88
49813;BME280;35706;52.100;5.056;2023-12-20T03:23:14;101424.69;;;10.09;80.48
49813;BME280;35706;52.100;5.056;2023-12-20T03:24:14;101421.97;;;10.11;80.34
49813;BME280;35706;52.100;5.056;2023-12-20T03:25:15;101430.94;;;10.08;80.68
49813;BME280;35706;52.100;5.056;2023-12-20T03:26:15;101418.72;;;10.07;80.70
49813;BME280;35706;52.100;5.056;2023-12-20T03:27:16;101430.44;;;10.03;80.43
49813;BME280;35706;52.100;5.056;2023-12-20T03:28:16;101435.78;;;9.90;81.33
49813;BME280;35706;52.100;5.056;2023-12-20T03:29:16;101430.94;;;9.97;80.92
49813;BME280;35706;52.100;5.056;2023-12-20T03:30:16;101422.56;;;10.14;80.63
49813;BME280;35706;52.100;5.056;2023-12-20T03:31:17;101428.78;;;10.02;80.83
49813;BME280;35706;52.100;5.056;2023-12-20T03:32:17;101421.94;;;9.88;80.80
49813;BME280;35706;52.100;5.056;2023-12-20T03:33:17;101420.53;;;9.95;80.60
49813;BME280;35706;52.100;5.056;2023-12-20T03:34:18;101424.97;;;9.95;80.57
49813;BME280;35706;52.100;5.056;2023-12-20T03:35:18;101420.88;;;9.91;80.92
49813;BME280;35706;52.100;5.056;2023-12-20T03:36:19;101426.63;;;10.07;80.92
49813;BME280;35706;52.100;5.056;2023-12-20T03:37:20;101418.47;;;9.88;80.92
49813;BME280;35706;52.100;5.056;2023-12-20T03:38:21;101421.13;;;10.10;80.79
49813;BME280;35706;52.100;5.056;2023-12-20T03:39:21;101429.34;;;9.94;80.81
49813;BME280;35706;52.100;5.056;2023-12-20T03:40:22;101425.28;;;9.90;81.00
49813;BME280;35706;52.100;5.056;2023-12-20T03:41:22;101427.22;;;9.99;80.76
49813;BME280;35706;52.100;5.056;2023-12-20T03:42:22;101417.28;;;9.81;81.43
49813;BME280;35706;52.100;5.056;2023-12-20T03:43:23;101426.59;;;9.85;81.54
49813;BME280;35706;52.100;5.056;2023-12-20T03:44:23;101423.38;;;9.92;81.15
49813;BME280;35706;52.100;5.056;2023-12-20T03:45:23;101428.03;;;9.89;81.42
49813;BME280;35706;52.100;5.056;2023-12-20T03:46:23;101433.88;;;9.92;81.39
49813;BME280;35706;52.100;5.056;2023-12-20T03:47:24;101440.66;;;9.84;81.20
49813;BME280;35706;52.100;5.056;2023-12-20T03:48:24;101442.00;;;9.78;81.32
49813;BME280;35706;52.100;5.056;2023-12-20T03:49:24;101435.56;;;9.82;81.21
49813;BME280;35706;52.100;5.056;2023-12-20T03:50:26;101424.59;;;9.99;81.11
49813;BME280;35706;52.100;5.056;2023-12-20T03:51:26;101425.63;;;9.74;81.10
49813;BME280;35706;52.100;5.056;2023-12-20T03:52:27;101430.41;;;9.92;81.10
49813;BME280;35706;52.100;5.056;2023-12-20T03:53:27;101433.31;;;9.89;81.02
49813;BME280;35706;52.100;5.056;2023-12-20T03:54:28;101439.72;;;9.85;81.02
49813;BME280;35706;52.100;5.056;2023-12-20T03:55:28;101432.00;;;10.06;80.52
49813;BME280;35706;52.100;5.056;2023-12-20T03:56:28;101423.97;;;9.96;80.31
49813;BME280;35706;52.100;5.056;2023-12-20T03:57:29;101439.50;;;9.88;80.95
49813;BME280;35706;52.100;5.056;2023-12-20T03:58:29;101426.47;;;9.75;81.13
49813;BME280;35706;52.100;5.056;2023-12-20T03:59:30;101432.34;;;10.01;80.53
49813;BME280;35706;52.100;5.056;2023-12-20T04:00:34;101436.50;;;9.81;80.67
49813;BME280;35706;52.100;5.056;2023-12-20T04:01:35;101436.66;;;9.91;80.36
49813;BME280;35706;52.100;5.056;2023-12-20T04:02:39;101434.38;;;10.09;80.12
49813;BME280;35706;52.100;5.056;2023-12-20T04:03:40;101430.66;;;9.89;80.17
49813;BME280;35706;52.100;5.056;2023-12-20T04:04:40;101428.16;;;9.98;79.96
49813;BME280;35706;52.100;5.056;2023-12-20T04:05:41;101438.31;;;10.03;79.77
49813;BME280;35706;52.100;5.056;2023-12-20T04:06:41;101431.50;;;10.01;80.31
49813;BME280;35706;52.100;5.056;2023-12-20T04:07:42;101428.41;;;9.95;80.00
49813;BME280;35706;52.100;5.056;2023-12-20T04:08:42;101432.00;;;10.06;79.84
49813;BME280;35706;52.100;5.056;2023-12-20T04:09:42;101422.06;;;9.98;79.72
49813;BME280;35706;52.100;5.056;2023-12-20T04:10:43;101418.00;;;9.83;80.17
49813;BME280;35706;52.100;5.056;2023-12-20T04:11:43;101427.59;;;9.95;79.73
49813;BME280;35706;52.100;5.056;2023-12-20T04:12:43;101417.28;;;10.03;79.65
49813;BME280;35706;52.100;5.056;2023-12-20T04:13:43;101419.44;;;9.98;79.76
49813;BME280;35706;52.100;5.056;2023-12-20T04:14:44;101424.34;;;10.03;79.64
49813;BME280;35706;52.100;5.056;2023-12-20T04:15:44;101411.56;;;9.98;79.68
49813;BME280;35706;52.100;5.056;2023-12-20T04:16:44;101423.75;;;9.99;79.51
49813;BME280;35706;52.100;5.056;2023-12-20T04:17:45;101418.25;;;9.91;79.69
49813;BME280;35706;52.100;5.056;2023-12-20T04:18:45;101416.47;;;9.91;79.91
49813;BME280;35706;52.100;5.056;2023-12-20T04:19:45;101416.09;;;10.07;79.46
49813;BME280;35706;52.100;5.056;2023-12-20T04:20:46;101426.03;;;10.04;79.38
49813;BME280;35706;52.100;5.056;2023-12-20T04:21:46;101415.28;;;10.07;79.16
49813;BME280;35706;52.100;5.056;2023-12-20T04:22:46;101421.97;;;10.11;78.83
49813;BME280;35706;52.100;5.056;2023-12-20T04:23:47;101403.44;;;10.01;79.29
49813;BME280;35706;52.100;5.056;2023-12-20T04:24:47;101412.75;;;9.83;80.01
49813;BME280;35706;52.100;5.056;2023-12-20T04:25:47;101416.00;;;10.09;79.25
49813;BME280;35706;52.100;5.056;2023-12-20T04:26:48;101402.16;;;10.07;79.14
49813;BME280;35706;52.100;5.056;2023-12-20T04:27:48;101409.91;;;10.19;79.08
49813;BME280;35706;52.100;5.056;2023-12-20T04:28:48;101401.06;;;9.98;79.74
49813;BME280;35706;52.100;5.056;2023-12-20T04:29:49;101404.16;;;10.03;79.51
49813;BME280;35706;52.100;5.056;2023-12-20T04:30:49;101414.19;;;9.98;79.60
49813;BME280;35706;52.100;5.056;2023-12-20T04:31:49;101407.03;;;10.11;78.94
49813;BME280;35706;52.100;5.056;2023-12-20T04:32:51;101405.00;;;10.15;79.55
49813;BME280;35706;52.100;5.056;2023-12-20T04:33:51;101401.19;;;9.96;79.74
49813;BME280;35706;52.100;5.056;2023-12-20T04:34:52;101402.75;;;10.10;79.35
49813;BME280;35706;52.100;5.056;2023-12-20T04:35:52;101401.31;;;10.06;79.53
49813;BME280;35706;52.100;5.056;2023-12-20T04:36:53;101410.63;;;9.99;80.09
49813;BME280;35706;52.100;5.056;2023-12-20T04:37:54;101413.94;;;9.90;80.14
49813;BME280;35706;52.100;5.056;2023-12-20T04:38:54;101410.84;;;9.96;80.31
49813;BME280;35706;52.100;5.056;2023-12-20T04:39:54;101425.06;;;9.93;80.15
49813;BME280;35706;52.100;5.056;2023-12-20T04:40:55;101414.81;;;10.13;79.89
49813;BME280;35706;52.100;5.056;2023-12-20T04:41:55;101415.88;;;9.99;80.18
49813;BME280;35706;52.100;5.056;2023-12-20T04:42:55;101407.25;;;9.86;80.77
49813;BME280;35706;52.100;5.056;2023-12-20T04:43:56;101410.03;;;9.95;80.55
49813;BME280;35706;52.100;5.056;2023-12-20T04:44:56;101406.31;;;9.87;80.89
49813;BME280;35706;52.100;5.056;2023-12-20T04:45:56;101414.06;;;9.88;80.82
49813;BME280;35706;52.100;5.056;2023-12-20T04:46:57;101419.56;;;9.74;81.31
49813;BME280;35706;52.100;5.056;2023-12-20T04:47:57;101403.78;;;9.74;81.39
49813;BME280;35706;52.100;5.056;2023-12-20T04:48:58;101412.28;;;9.89;80.87
49813;BME280;35706;52.100;5.056;2023-12-20T04:49:58;101399.84;;;9.79;81.26
49813;BME280;35706;52.100;5.056;2023-12-20T04:50:59;101399.41;;;9.97;81.13
49813;BME280;35706;52.100;5.056;2023-12-20T04:51:59;101408.22;;;9.85;81.15
49813;BME280;35706;52.100;5.056;2023-12-20T04:52:59;101395.81;;;9.98;80.79
49813;BME280;35706;52.100;5.056;2023-12-20T04:54:00;101398.81;;;9.93;80.47
49813;BME280;35706;52.100;5.056;2023-12-20T04:55:01;101414.41;;;9.84;80.84
49813;BME280;35706;52.100;5.056;2023-12-20T04:56:01;101403.69;;;9.98;80.79
49813;BME280;35706;52.100;5.056;2023-12-20T04:57:02;101410.13;;;9.83;80.82
49813;BME280;35706;52.100;5.056;2023-12-20T04:58:02;101406.31;;;9.87;80.41
49813;BME280;35706;52.100;5.056;2023-12-20T04:59:02;101402.03;;;9.97;80.29
49813;BME280;35706;52.100;5.056;2023-12-20T05:00:03;101400.34;;;10.07;79.94
49813;BME280;35706;52.100;5.056;2023-12-20T05:01:05;101398.56;;;10.08;80.63
49813;BME280;35706;52.100;5.056;2023-12-20T05:02:06;101406.44;;;9.85;80.69
49813;BME280;35706;52.100;5.056;2023-12-20T05:03:06;101403.56;;;9.88;80.49
49813;BME280;35706;52.100;5.056;2023-12-20T05:04:06;101411.31;;;10.01;80.20
49813;BME280;35706;52.100;5.056;2023-12-20T05:05:07;101400.00;;;9.89;80.52
49813;BME280;35706;52.100;5.056;2023-12-20T05:06:09;101402.00;;;9.86;81.20
49813;BME280;35706;52.100;5.056;2023-12-20T05:07:09;101402.84;;;9.86;80.58
49813;BME280;35706;52.100;5.056;2023-12-20T05:08:10;101395.47;;;9.80;80.76
49813;BME280;35706;52.100;5.056;2023-12-20T05:09:10;101400.22;;;9.86;80.78
49813;BME280;35706;52.100;5.056;2023-12-20T05:10:11;101405.59;;;9.85;80.60
49813;BME280;35706;52.100;5.056;2023-12-20T05:11:11;101400.81;;;9.90;80.31
49813;BME280;35706;52.100;5.056;2023-12-20T05:12:14;101396.75;;;9.86;80.74
49813;BME280;35706;52.100;5.056;2023-12-20T05:13:15;101382.94;;;9.95;80.47
49813;BME280;35706;52.100;5.056;2023-12-20T05:14:15;101393.19;;;9.98;80.40
49813;BME280;35706;52.100;5.056;2023-12-20T05:15:17;101389.13;;;9.83;80.35
49813;BME280;35706;52.100;5.056;2023-12-20T05:16:17;101394.13;;;9.74;80.73
49813;BME280;35706;52.100;5.056;2023-12-20T05:17:20;101392.56;;;9.72;81.41
49813;BME280;35706;52.100;5.056;2023-12-20T05:18:21;101390.09;;;9.93;80.90
49813;BME280;35706;52.100;5.056;2023-12-20T05:19:23;101395.31;;;9.82;80.99